Time;durP1;ratioP1;P1;durP2;ratioP2;P2;SDS_P1;SDS_P2;PMS_P1;PMS_P2;Temp;Humidity;BMP_temperature;BMP_pressure;BME280_temperature;BME280_humidity;BME280_pressure;Samples;Min_cycle;Max_cycle;Signal;HPM_P1;HPM_P2
2023/06/23 00:00:28;;;;;;;1.75;1.45;;;;;;;20.95;68.29;100006.22;10240500;28;20051;-68
2023/06/23 00:05:29;;;;;;;2.45;1.40;;;;;;;20.90;67.74;100015.19;10239818;28;20044;-67
2023/06/23 00:10:31;;;;;;;2.55;1.80;;;;;;;20.84;67.91;100026.31;10236633;28;20133;-66
2023/06/23 00:15:33;;;;;;;2.88;1.65;;;;;;;20.82;68.15;100007.44;10239932;28;20142;-67
2023/06/23 00:20:36;;;;;;;2.45;1.70;;;;;;;20.80;67.94;100012.31;10237937;28;20051;-67
2023/06/23 00:25:37;;;;;;;2.13;1.05;;;;;;;20.70;68.10;100002.06;10238619;28;20075;-66
2023/06/23 00:30:39;;;;;;;1.20;0.88;;;;;;;20.55;66.98;100008.09;10238046;28;20058;-67
2023/06/23 00:35:40;;;;;;;1.70;1.13;;;;;;;20.50;66.45;100018.13;10239746;28;20045;-66
2023/06/23 00:40:42;;;;;;;2.17;0.90;;;;;;;20.40;65.83;100014.16;10240097;28;20062;-67
2023/06/23 00:45:46;;;;;;;1.98;1.00;;;;;;;20.41;65.69;100029.44;10240895;28;20142;-64
2023/06/23 00:50:47;;;;;;;2.00;1.35;;;;;;;20.34;64.99;100044.34;10239208;28;20558;-65
2023/06/23 00:55:49;;;;;;;1.98;1.10;;;;;;;20.35;64.42;100056.94;10240078;28;20051;-64
2023/06/23 01:00:50;;;;;;;3.13;1.70;;;;;;;20.35;64.41;100070.59;10244812;28;20047;-65
2023/06/23 01:05:52;;;;;;;2.78;1.48;;;;;;;20.38;63.92;100065.47;10246697;28;20094;-66
2023/06/23 01:11:15;;;;;;;2.72;1.27;;;;;;;20.35;63.64;100065.13;10246974;28;20055;-65
2023/06/23 01:16:32;;;;;;;2.10;1.00;;;;;;;20.35;62.19;100073.31;10244618;28;20043;-70
2023/06/23 01:21:39;;;;;;;;;;;;;;;20.32;61.69;100068.34;10243815;28;20052;-70
2023/06/23 01:27:08;;;;;;;1.67;1.03;;;;;;;20.41;61.83;100085.97;10241685;28;20020;-67
2023/06/23 01:32:21;;;;;;;1.25;1.00;;;;;;;20.40;62.15;100108.91;10242013;28;20526;-67
2023/06/23 01:37:27;;;;;;;1.25;0.65;;;;;;;20.44;61.74;100129.19;10242179;28;20130;-66
2023/06/23 01:42:32;;;;;;;1.48;0.75;;;;;;;20.42;62.03;100114.94;10244145;28;20210;-69
2023/06/23 01:47:38;;;;;;;2.65;1.05;;;;;;;20.50;62.29;100128.19;10243030;28;20067;-67
2023/06/23 01:52:40;;;;;;;1.83;1.23;;;;;;;20.54;61.84;100156.66;10242127;28;20048;-69
2023/06/23 01:57:43;;;;;;;2.05;1.10;;;;;;;20.52;62.75;100163.44;10243720;28;20546;-67
2023/06/23 02:02:47;;;;;;;1.60;1.20;;;;;;;20.49;62.30;100139.34;10242256;28;20063;-67
2023/06/23 02:07:51;;;;;;;2.00;1.23;;;;;;;20.55;62.15;100160.22;10240524;28;20134;-68
2023/06/23 02:12:54;;;;;;;3.53;1.52;;;;;;;20.53;62.38;100156.91;10241087;28;20058;-69
2023/06/23 02:17:58;;;;;;;2.50;1.70;;;;;;;20.52;61.57;100141.59;10241092;28;20059;-66
2023/06/23 02:23:01;;;;;;;1.38;1.02;;;;;;;20.60;61.79;100158.44;10239483;28;20055;-68
2023/06/23 02:28:03;;;;;;;2.55;1.52;;;;;;;20.72;61.53;100182.94;10242039;28;20047;-69
2023/06/23 02:33:04;;;;;;;3.33;2.22;;;;;;;20.69;61.36;100167.03;10231323;28;20044;-67
2023/06/23 02:38:11;;;;;;;3.25;1.40;;;;;;;20.67;61.57;100168.34;10240088;28;20043;-68
2023/06/23 02:43:25;;;;;;;4.72;1.90;;;;;;;20.62;60.57;100166.38;10237450;28;20078;-67
2023/06/23 02:48:36;;;;;;;3.20;1.77;;;;;;;20.60;60.34;100179.47;10240334;28;20043;-69
2023/06/23 02:53:44;;;;;;;2.47;1.40;;;;;;;20.68;60.44;100176.31;10241487;28;20047;-68
2023/06/23 02:58:52;;;;;;;5.20;2.35;;;;;;;20.63;60.54;100195.34;10233037;28;20447;-66
2023/06/23 03:03:55;;;;;;;3.55;2.40;;;;;;;20.60;60.81;100190.38;10241246;28;20059;-67
2023/06/23 03:08:57;;;;;;;2.40;2.00;;;;;;;20.61;60.85;100208.41;10239281;28;20055;-69
2023/06/23 03:13:59;;;;;;;3.00;1.98;;;;;;;20.52;60.78;100234.44;10253118;28;20066;-71
2023/06/23 03:19:29;;;;;;;4.55;2.50;;;;;;;20.58;61.27;100236.19;10242293;28;20059;-72
2023/06/23 03:24:37;;;;;;;4.10;2.30;;;;;;;20.63;61.17;100246.41;10243139;28;20526;-73
2023/06/23 03:30:02;;;;;;;2.67;2.22;;;;;;;20.54;61.20;100251.41;10239561;28;20483;-71
2023/06/23 03:35:10;;;;;;;2.95;2.08;;;;;;;20.50;60.73;100267.47;10242105;28;20086;-73
2023/06/23 03:40:16;;;;;;;3.45;2.40;;;;;;;20.50;60.69;100267.47;10240151;28;20577;-68
2023/06/23 03:45:19;;;;;;;3.33;1.80;;;;;;;20.50;60.12;100245.63;10238555;28;20549;-68
2023/06/23 03:50:26;;;;;;;4.05;1.95;;;;;;;20.51;60.25;100262.81;10238228;28;20397;-68
2023/06/23 03:55:34;;;;;;;1.58;0.90;;;;;;;20.48;59.92;100263.28;10238545;28;20048;-68
2023/06/23 04:00:37;;;;;;;3.63;2.50;;;;;;;20.41;60.15;100266.19;10238897;28;20054;-68
2023/06/23 04:05:40;;;;;;;4.07;2.45;;;;;;;20.40;59.66;100292.66;10238367;28;20069;-70
2023/06/23 04:10:43;;;;;;;2.50;1.83;;;;;;;20.46;59.76;100306.41;10234994;28;20147;-67
2023/06/23 04:15:46;;;;;;;6.85;2.03;;;;;;;20.39;59.76;100307.38;10235483;28;20043;-67
2023/06/23 04:20:50;;;;;;;3.50;2.50;;;;;;;20.40;59.64;100314.50;10234936;28;20481;-66
2023/06/23 04:25:54;;;;;;;3.00;2.22;;;;;;;20.39;59.72;100326.50;10236607;28;20131;-68
2023/06/23 04:30:59;;;;;;;4.00;2.28;;;;;;;20.33;60.07;100343.84;10236940;28;20051;-67
2023/06/23 04:36:21;;;;;;;4.00;2.88;;;;;;;20.30;60.39;100349.78;10244007;28;20051;-59
2023/06/23 04:41:26;;;;;;;5.05;3.35;;;;;;;20.30;60.61;100354.41;10244332;28;20059;-61
2023/06/23 04:46:31;;;;;;;2.90;2.45;;;;;;;20.26;61.11;100356.81;10242990;28;20051;-63
2023/06/23 04:51:37;;;;;;;6.43;3.13;;;;;;;20.31;60.42;100356.91;10244290;28;20374;-61
2023/06/23 04:56:41;;;;;;;3.10;2.75;;;;;;;20.45;60.40;100367.56;10245721;28;20706;-61
2023/06/23 05:01:43;;;;;;;2.22;1.67;;;;;;;20.37;59.91;100372.31;10244371;28;20059;-61
2023/06/23 05:06:47;;;;;;;3.08;2.10;;;;;;;20.33;60.17;100382.06;10234085;28;20043;-64
2023/06/23 05:11:52;;;;;;;4.05;2.00;;;;;;;20.37;59.80;100393.34;10256679;28;20055;-60
2023/06/23 05:16:58;;;;;;;3.20;1.85;;;;;;;20.36;59.55;100408.91;10243895;28;20066;-63
2023/06/23 05:22:03;;;;;;;3.08;2.13;;;;;;;20.38;59.70;100384.91;10242113;28;20101;-63
2023/06/23 05:27:08;;;;;;;3.00;1.95;;;;;;;20.28;59.71;100400.22;10244322;28;20458;-63
2023/06/23 05:32:13;;;;;;;3.20;2.10;;;;;;;20.30;59.36;100414.47;10241201;28;20152;-62
2023/06/23 05:37:18;;;;;;;2.90;1.88;;;;;;;20.36;59.11;100416.28;10242741;28;20055;-63
2023/06/23 05:42:20;;;;;;;3.58;2.30;;;;;;;20.17;59.78;100438.22;10243645;28;20405;-63
2023/06/23 05:47:26;;;;;;;3.80;2.50;;;;;;;20.17;60.19;100443.69;10247126;28;20052;-64
2023/06/23 05:52:31;;;;;;;2.67;2.25;;;;;;;20.01;60.26;100450.66;10248027;28;20047;-63
2023/06/23 05:57:37;;;;;;;3.35;2.42;;;;;;;20.16;60.41;100446.63;10249262;28;20117;-66
2023/06/23 06:02:42;;;;;;;4.97;3.38;;;;;;;20.40;59.73;100450.22;10239563;28;20070;-65
2023/06/23 06:07:45;;;;;;;2.42;2.22;;;;;;;20.46;59.38;100462.91;10239804;28;20047;-66
2023/06/23 06:12:49;;;;;;;4.53;2.63;;;;;;;20.73;59.07;100470.63;10241857;28;20043;-66
2023/06/23 06:17:53;;;;;;;4.20;2.28;;;;;;;20.69;58.01;100486.66;10243433;28;20575;-67
2023/06/23 06:22:55;;;;;;;3.30;1.55;;;;;;;20.64;58.11;100504.84;10243019;28;20122;-69
2023/06/23 06:28:18;;;;;;;5.78;2.47;;;;;;;20.76;57.28;100519.31;10240843;28;20062;-67
2023/06/23 06:33:21;;;;;;;2.97;1.92;;;;;;;20.77;57.71;100529.16;10240977;28;20078;-68
2023/06/23 06:38:23;;;;;;;4.05;2.08;;;;;;;20.67;57.59;100535.22;10242997;28;20146;-66
2023/06/23 06:43:25;;;;;;;3.78;2.15;;;;;;;20.58;57.42;100534.75;10243306;28;20051;-69
2023/06/23 06:48:28;;;;;;;2.33;2.13;;;;;;;20.55;57.77;100537.09;10238760;28;20048;-67
2023/06/23 06:53:30;;;;;;;7.57;1.80;;;;;;;20.63;57.74;100534.03;10238825;28;20551;-66
2023/06/23 06:58:32;;;;;;;4.95;2.40;;;;;;;20.73;57.09;100550.66;10240488;28;20047;-67
2023/06/23 07:03:35;;;;;;;1.77;1.65;;;;;;;21.06;56.83;100568.34;10242380;28;20138;-68
2023/06/23 07:08:37;;;;;;;4.57;2.28;;;;;;;21.31;55.90;100572.72;10239447;28;20079;-66
2023/06/23 07:13:39;;;;;;;4.85;2.75;;;;;;;21.38;55.74;100581.59;10240722;28;20049;-66
2023/06/23 07:18:41;;;;;;;8.15;3.03;;;;;;;21.30;55.80;100601.94;10246041;28;20529;-68
2023/06/23 07:23:43;;;;;;;4.55;2.53;;;;;;;21.30;55.74;100601.94;10240341;28;20074;-69
2023/06/23 07:28:44;;;;;;;4.93;2.70;;;;;;;21.32;55.61;100597.06;10241221;28;20062;-72
2023/06/23 07:33:47;;;;;;;4.43;3.00;;;;;;;21.50;54.98;100609.75;10238317;28;20039;-69
2023/06/23 07:38:48;;;;;;;5.65;3.38;;;;;;;21.56;55.23;100621.66;10240758;28;20495;-70
2023/06/23 07:43:50;;;;;;;3.97;2.78;;;;;;;21.64;55.17;100632.22;10241900;28;20066;-70
2023/06/23 07:48:53;;;;;;;3.05;2.38;;;;;;;21.76;54.59;100634.91;10240684;28;20553;-70
2023/06/23 07:53:55;;;;;;;3.70;2.80;;;;;;;21.64;54.23;100653.28;10241996;28;20158;-66
2023/06/23 07:59:07;;;;;;;4.22;2.85;;;;;;;21.77;53.49;100639.31;10238031;28;20054;-71
2023/06/23 08:04:09;;;;;;;4.95;2.90;;;;;;;21.66;53.20;100662.88;10240079;28;20074;-65
2023/06/23 08:09:11;;;;;;;3.50;2.38;;;;;;;21.95;52.58;100668.41;10244219;28;20138;-64
2023/06/23 08:14:13;;;;;;;3.30;2.35;;;;;;;21.99;52.02;100651.25;10262840;28;20055;-72
2023/06/23 08:19:15;;;;;;;7.25;3.17;;;;;;;22.13;51.98;100667.38;10276524;28;20051;-63
2023/06/23 08:24:16;;;;;;;4.20;2.28;;;;;;;22.26;51.60;100671.78;10283348;28;20054;-64
2023/06/23 08:29:18;;;;;;;3.95;2.25;;;;;;;22.45;50.67;100697.84;10267287;28;20491;-63
2023/06/23 08:34:20;;;;;;;5.57;2.08;;;;;;;22.41;50.15;100698.59;10270730;28;20047;-64
2023/06/23 08:39:21;;;;;;;2.65;2.25;;;;;;;22.71;50.00;100701.03;10260378;28;20055;-63
2023/06/23 08:44:24;;;;;;;4.32;2.78;;;;;;;22.92;49.27;100694.81;10268284;28;20055;-63
2023/06/23 08:49:28;;;;;;;2.58;1.88;;;;;;;23.14;49.04;100705.06;10267987;28;20058;-63
2023/06/23 08:54:30;;;;;;;3.60;2.03;;;;;;;23.14;48.41;100718.75;10284112;28;20048;-63
2023/06/23 08:59:32;;;;;;;3.55;2.10;;;;;;;23.12;47.82;100701.72;10271132;28;20053;-64
2023/06/23 09:04:33;;;;;;;2.95;2.28;;;;;;;23.17;48.18;100713.63;10259336;28;20051;-63
2023/06/23 09:09:35;;;;;;;3.13;1.95;;;;;;;23.14;48.01;100733.34;10272554;28;20062;-61
2023/06/23 09:14:37;;;;;;;3.63;2.05;;;;;;;23.27;47.60;100743.13;10254054;28;20055;-65
2023/06/23 09:19:42;;;;;;;3.55;1.98;;;;;;;23.47;46.70;100744.50;10248981;28;20092;-65
2023/06/23 09:24:44;;;;;;;2.55;1.75;;;;;;;23.58;46.52;100756.44;10265895;28;20506;-63
2023/06/23 09:29:59;;;;;;;2.47;1.65;;;;;;;23.68;46.12;100748.38;10272051;28;20027;-62
2023/06/23 09:35:01;;;;;;;4.63;1.63;;;;;;;23.88;45.36;100753.34;10273482;28;20110;-64
2023/06/23 09:40:04;;;;;;;5.03;2.15;;;;;;;23.81;45.97;100774.66;10264324;28;20047;-65
2023/06/23 09:45:16;;;;;;;4.22;2.42;;;;;;;23.54;46.80;100764.38;10271735;28;20101;-65
2023/06/23 09:50:22;;;;;;;2.72;2.08;;;;;;;23.84;45.95;100761.25;10262101;28;20043;-65
2023/06/23 09:55:23;;;;;;;2.88;2.15;;;;;;;24.01;44.73;100768.59;10265436;28;20277;-64
2023/06/23 10:00:32;;;;;;;3.65;2.13;;;;;;;24.21;45.12;100779.00;10270253;28;20170;-63
2023/06/23 10:05:38;;;;;;;5.00;2.80;;;;;;;24.41;45.42;100779.25;10270005;28;20066;-66
2023/06/23 10:10:44;;;;;;;1.80;1.40;;;;;;;24.43;44.37;100790.00;10272923;28;20051;-64
2023/06/23 10:15:46;;;;;;;3.08;1.05;;;;;;;24.66;43.24;100789.72;10273084;28;20070;-65
2023/06/23 10:20:48;;;;;;;2.38;1.10;;;;;;;25.22;41.69;100794.13;10260939;28;20103;-64
2023/06/23 10:25:54;;;;;;;1.27;0.75;;;;;;;25.01;41.30;100801.34;10267621;28;20070;-64
2023/06/23 10:30:59;;;;;;;1.80;1.10;;;;;;;25.16;40.65;100803.38;10244712;28;20110;-62
2023/06/23 10:36:06;;;;;;;1.93;0.90;;;;;;;25.19;40.36;100816.63;10241342;28;20418;-64
2023/06/23 10:41:10;;;;;;;2.35;1.15;;;;;;;25.30;39.67;100815.66;10240935;28;20055;-62
2023/06/23 10:46:11;;;;;;;3.80;1.10;;;;;;;25.51;39.77;100822.97;10239849;28;20471;-64
2023/06/23 10:51:13;;;;;;;2.10;1.05;;;;;;;25.78;39.51;100827.53;10240650;28;20051;-64
2023/06/23 10:56:35;;;;;;;1.88;0.80;;;;;;;25.38;40.37;100839.09;10238562;28;20438;-61
2023/06/23 11:02:07;;;;;;;5.28;1.23;;;;;;;25.26;40.14;100850.28;10238088;28;20053;-64
2023/06/23 11:07:14;;;;;;;2.63;0.98;;;;;;;25.04;40.39;100864.06;10240161;28;20055;-64
2023/06/23 11:12:44;;;;;;;2.75;1.10;;;;;;;25.02;41.13;100867.09;10240421;28;20608;-62
2023/06/23 11:18:06;;;;;;;2.53;1.35;;;;;;;25.11;40.88;100862.75;10239793;28;20498;-62
2023/06/23 11:23:10;;;;;;;1.55;1.30;;;;;;;25.26;41.11;100869.56;10239455;28;20051;-62
2023/06/23 11:28:29;;;;;;;3.20;0.85;;;;;;;25.22;39.36;100876.69;10240280;28;20157;-62
2023/06/23 11:33:33;;;;;;;3.40;1.35;;;;;;;25.51;38.40;100864.28;10237167;28;20051;-65
2023/06/23 11:38:36;;;;;;;2.30;1.20;;;;;;;25.65;39.47;100872.06;10239150;28;20058;-63
2023/06/23 11:43:38;;;;;;;3.20;1.30;;;;;;;25.75;39.33;100877.66;10238431;28;20139;-63
2023/06/23 11:48:41;;;;;;;3.17;0.90;;;;;;;25.99;38.44;100882.78;10240037;28;20090;-63
2023/06/23 11:53:43;;;;;;;1.80;1.00;;;;;;;25.97;37.90;100885.81;10239482;28;20061;-64
2023/06/23 11:58:50;;;;;;;3.75;1.13;;;;;;;25.92;37.51;100883.84;10238230;28;20055;-64
2023/06/23 12:03:55;;;;;;;3.17;0.82;;;;;;;26.02;37.24;100902.38;10238210;28;20537;-64
2023/06/23 12:08:57;;;;;;;1.35;1.00;;;;;;;25.90;36.85;100899.81;10236470;28;20112;-63
2023/06/23 12:13:58;;;;;;;1.35;1.08;;;;;;;26.12;37.40;100896.09;10237288;28;20127;-61
2023/06/23 12:19:00;;;;;;;2.13;0.82;;;;;;;26.39;37.17;100892.41;10238004;28;20402;-62
2023/06/23 12:24:01;;;;;;;1.52;0.90;;;;;;;26.45;36.97;100892.13;10238378;28;20051;-63
2023/06/23 12:29:11;;;;;;;1.02;0.90;;;;;;;27.03;35.68;100880.22;10237971;28;20051;-64
2023/06/23 12:34:14;;;;;;;6.30;1.02;;;;;;;27.03;34.91;100882.97;10236225;28;20050;-64
2023/06/23 12:39:16;;;;;;;1.52;0.90;;;;;;;27.30;34.35;100878.06;10236653;28;20458;-68
2023/06/23 12:44:20;;;;;;;1.38;0.75;;;;;;;27.87;33.92;100878.03;10237239;28;20047;-70
2023/06/23 12:49:32;;;;;;;1.55;0.70;;;;;;;28.28;32.98;100875.22;10236636;28;20047;-71
2023/06/23 12:54:34;;;;;;;1.60;1.00;;;;;;;28.33;32.36;100883.47;10251314;28;20066;-65
2023/06/23 12:59:35;;;;;;;1.35;0.77;;;;;;;28.67;31.32;100883.66;10257128;28;20051;-64
2023/06/23 13:04:37;;;;;;;1.23;0.90;;;;;;;29.18;30.77;100887.25;10229169;28;20040;-65
2023/06/23 13:09:38;;;;;;;1.58;1.20;;;;;;;29.11;31.75;100878.38;10245819;28;20414;-66
2023/06/23 13:14:40;;;;;;;3.35;0.93;;;;;;;28.84;32.69;100891.56;10245764;28;20050;-66
2023/06/23 13:19:41;;;;;;;0.98;0.63;;;;;;;28.73;32.65;100878.06;10244880;28;20054;-65
2023/06/23 13:24:43;;;;;;;2.05;0.90;;;;;;;28.76;32.51;100894.13;10249189;28;20054;-66
2023/06/23 13:29:45;;;;;;;3.17;0.93;;;;;;;28.71;32.96;100899.66;10249643;28;20131;-65
2023/06/23 13:34:46;;;;;;;2.05;0.60;;;;;;;29.01;31.55;100893.13;10243637;28;20087;-67
2023/06/23 13:39:48;;;;;;;1.35;0.70;;;;;;;29.35;30.44;100895.97;10245180;29;20047;-69
2023/06/23 13:44:49;;;;;;;1.15;0.60;;;;;;;29.50;30.04;100895.00;10244655;28;20043;-66
2023/06/23 13:49:52;;;;;;;2.95;0.60;;;;;;;29.43;30.31;100913.91;10245490;28;20051;-64
2023/06/23 13:54:53;;;;;;;3.03;0.68;;;;;;;29.34;30.53;100908.16;10245062;28;20528;-66
2023/06/23 13:59:54;;;;;;;0.95;0.60;;;;;;;30.33;29.90;100920.03;10244811;28;20070;-66
2023/06/23 14:04:56;;;;;;;1.75;0.80;;;;;;;30.24;29.07;100917.06;10243576;28;20109;-66
2023/06/23 14:09:58;;;;;;;0.90;0.70;;;;;;;30.77;28.44;100899.53;10241823;28;20051;-66
2023/06/23 14:15:02;;;;;;;1.35;0.80;;;;;;;30.38;28.17;100906.94;10241656;28;20458;-67
2023/06/23 14:20:04;;;;;;;1.42;0.90;;;;;;;30.51;28.21;100899.88;10241644;28;20082;-66
2023/06/23 14:25:08;;;;;;;1.60;0.70;;;;;;;31.09;27.53;100898.00;10242866;28;20078;-68
2023/06/23 14:30:10;;;;;;;3.63;0.80;;;;;;;31.10;27.13;100900.44;10236285;28;20050;-66
2023/06/23 14:35:12;;;;;;;0.98;0.60;;;;;;;30.37;28.23;100904.44;10238741;28;20482;-66
2023/06/23 14:40:13;;;;;;;1.10;0.60;;;;;;;29.89;29.40;100910.78;10236794;28;20055;-66
2023/06/23 14:45:15;;;;;;;2.45;0.63;;;;;;;29.57;30.46;100917.69;10239917;28;20043;-66
2023/06/23 14:50:17;;;;;;;2.50;0.70;;;;;;;29.88;29.98;100917.44;10238797;28;20131;-65
2023/06/23 14:55:18;;;;;;;1.15;0.77;;;;;;;29.34;30.77;100912.88;10240567;28;20043;-66
2023/06/23 15:00:20;;;;;;;1.83;0.85;;;;;;;28.90;31.61;100917.28;10240564;28;20524;-66
2023/06/23 15:05:21;;;;;;;0.95;0.68;;;;;;;28.98;31.45;100916.69;10238584;28;20524;-66
2023/06/23 15:10:23;;;;;;;1.70;0.80;;;;;;;30.04;30.76;100913.41;10238876;28;20062;-65
2023/06/23 15:15:24;;;;;;;2.42;0.80;;;;;;;30.75;29.62;100913.69;10238745;28;20073;-66
2023/06/23 15:20:26;;;;;;;1.30;0.80;;;;;;;31.46;28.87;100907.41;10237225;28;20055;-66
2023/06/23 15:25:27;;;;;;;1.88;0.60;;;;;;;31.78;28.49;100921.34;10237189;28;20059;-66
2023/06/23 15:30:29;;;;;;;1.77;0.75;;;;;;;31.34;28.63;100936.50;10240079;28;20122;-66
2023/06/23 15:35:31;;;;;;;1.35;0.65;;;;;;;30.87;28.98;100924.38;10237904;28;20058;-66
2023/06/23 15:40:32;;;;;;;2.25;0.55;;;;;;;30.48;29.38;100927.38;10236434;28;20073;-67
2023/06/23 15:45:39;;;;;;;2.00;0.70;;;;;;;30.54;29.17;100921.44;10237370;28;20058;-66
2023/06/23 15:50:40;;;;;;;1.38;0.95;;;;;;;30.68;28.54;100927.09;10235667;28;20070;-66
2023/06/23 15:55:42;;;;;;;1.30;0.70;;;;;;;30.63;28.58;100939.09;10236856;28;20047;-66
2023/06/23 16:00:43;;;;;;;1.42;0.70;;;;;;;30.38;29.68;100923.59;10227433;28;20061;-66
2023/06/23 16:05:45;;;;;;;1.58;1.05;;;;;;;30.50;29.22;100936.22;10234011;28;20206;-66
2023/06/23 16:10:46;;;;;;;1.33;0.70;;;;;;;30.59;29.42;100940.81;10234598;28;20047;-66
2023/06/23 16:15:48;;;;;;;1.40;0.77;;;;;;;31.18;29.33;100937.84;10238300;28;20051;-66
2023/06/23 16:20:49;;;;;;;2.42;1.20;;;;;;;31.58;28.74;100935.59;10237513;28;20046;-66
2023/06/23 16:25:51;;;;;;;1.77;0.90;;;;;;;30.47;29.50;100934.88;10237435;28;20058;-66
2023/06/23 16:30:53;;;;;;;1.35;0.90;;;;;;;30.33;30.33;100939.47;10241669;28;20509;-66
2023/06/23 16:35:54;;;;;;;2.70;1.20;;;;;;;30.30;29.88;100945.59;10245731;28;20643;-66
2023/06/23 16:40:56;;;;;;;2.10;0.88;;;;;;;30.95;30.00;100945.13;10243857;28;20062;-66
2023/06/23 16:45:57;;;;;;;2.20;1.15;;;;;;;30.94;30.12;100949.81;10242378;28;20047;-67
2023/06/23 16:50:59;;;;;;;1.92;0.88;;;;;;;31.61;28.77;100935.78;10241235;28;20519;-66
2023/06/23 16:56:05;;;;;;;1.45;0.95;;;;;;;31.93;28.81;100936.09;10226740;28;20051;-66
2023/06/23 17:01:07;;;;;;;2.15;0.80;;;;;;;31.92;28.63;100926.91;10244013;28;20142;-66
2023/06/23 17:06:09;;;;;;;1.55;1.10;;;;;;;31.66;28.98;100936.84;10244735;28;20063;-67
2023/06/23 17:11:10;;;;;;;1.02;0.93;;;;;;;31.56;28.84;100948.97;10241778;28;20741;-67
2023/06/23 17:16:12;;;;;;;1.38;0.88;;;;;;;31.82;28.57;100941.84;10242505;28;20737;-67
2023/06/23 17:21:13;;;;;;;2.45;0.70;;;;;;;32.42;27.91;100948.53;10245437;28;20047;-67
2023/06/23 17:26:14;;;;;;;0.88;0.70;;;;;;;32.95;27.29;100961.94;10243630;28;20043;-67
2023/06/23 17:31:16;;;;;;;1.23;0.60;;;;;;;32.92;27.34;100959.78;10245525;28;20529;-67
2023/06/23 17:36:18;;;;;;;2.25;0.70;;;;;;;32.90;27.07;100964.00;10244461;28;20126;-67
2023/06/23 17:41:19;;;;;;;3.13;0.80;;;;;;;33.47;26.30;100963.56;10244274;28;20061;-67
2023/06/23 17:46:22;;;;;;;1.50;0.80;;;;;;;34.07;25.97;100957.59;10244052;28;20051;-67
2023/06/23 17:51:24;;;;;;;1.85;1.02;;;;;;;34.36;26.99;100953.50;10244282;28;20561;-68
2023/06/23 17:56:25;;;;;;;1.20;0.68;;;;;;;34.64;27.09;100970.00;10244746;28;20059;-66
2023/06/23 18:01:27;;;;;;;2.97;2.22;;;;;;;34.77;26.44;100974.69;10241412;28;20050;-72
2023/06/23 18:06:30;;;;;;;2.80;0.93;;;;;;;35.04;27.00;100981.16;10241981;28;20074;-69
2023/06/23 18:11:32;;;;;;;2.40;1.00;;;;;;;35.23;26.61;100975.28;10241439;28;20047;-66
2023/06/23 18:16:33;;;;;;;1.35;0.95;;;;;;;35.03;26.57;100976.72;10239776;28;20043;-71
2023/06/23 18:21:35;;;;;;;1.95;0.90;;;;;;;34.19;28.50;100979.38;10243723;28;20047;-71
2023/06/23 18:26:36;;;;;;;3.55;1.27;;;;;;;33.46;28.47;100979.47;10240975;28;20053;-70
2023/06/23 18:31:40;;;;;;;1.88;0.95;;;;;;;32.63;29.67;100971.25;10241502;28;20054;-69
2023/06/23 18:36:43;;;;;;;1.63;1.02;;;;;;;31.83;30.68;100998.25;10241579;28;20073;-70
2023/06/23 18:41:44;;;;;;;3.03;1.23;;;;;;;31.28;31.07;100986.88;10240065;28;20066;-72
2023/06/23 18:46:46;;;;;;;1.95;1.17;;;;;;;30.82;32.06;100991.06;10241759;28;20142;-71
2023/06/23 18:51:47;;;;;;;1.80;0.77;;;;;;;30.30;32.84;100993.56;10240750;28;20138;-67
2023/06/23 18:56:49;;;;;;;2.60;1.20;;;;;;;29.76;33.51;100998.22;10242221;28;20462;-71
2023/06/23 19:01:53;;;;;;;1.80;0.95;;;;;;;29.26;33.89;100997.41;10241400;28;20115;-69
2023/06/23 19:06:55;;;;;;;1.83;1.30;;;;;;;28.63;34.82;101004.31;10242058;28;20416;-72
2023/06/23 19:11:57;;;;;;;1.55;1.17;;;;;;;28.24;34.78;101002.13;10239718;28;20073;-69
2023/06/23 19:16:58;;;;;;;2.08;1.02;;;;;;;27.61;35.39;101015.38;10239115;28;20450;-70
2023/06/23 19:22:00;;;;;;;2.03;1.00;;;;;;;27.41;34.83;101011.47;10238999;28;20055;-68
2023/06/23 19:27:08;;;;;;;3.30;1.40;;;;;;;27.09;35.09;101015.19;10238430;28;20062;-68
2023/06/23 19:32:10;;;;;;;2.20;1.15;;;;;;;26.95;34.71;101030.56;10239796;28;20582;-71
2023/06/23 19:37:11;;;;;;;3.72;1.65;;;;;;;26.76;36.05;101040.41;10241299;28;20051;-68
2023/06/23 19:42:13;;;;;;;3.28;1.10;;;;;;;26.49;37.09;101038.56;10239809;28;20059;-67
2023/06/23 19:47:14;;;;;;;2.92;1.15;;;;;;;26.31;38.68;101050.84;10236894;28;20096;-69
2023/06/23 19:52:16;;;;;;;3.13;1.55;;;;;;;26.11;39.64;101060.63;10238675;28;20078;-68
2023/06/23 19:57:17;;;;;;;2.85;1.67;;;;;;;25.75;41.04;101069.59;10239502;28;20039;-69
2023/06/23 20:02:20;;;;;;;2.15;1.70;;;;;;;25.49;42.08;101081.19;10238016;28;20078;-69
2023/06/23 20:07:21;;;;;;;2.13;1.67;;;;;;;25.35;42.58;101095.59;10237884;28;20050;-76
2023/06/23 20:12:23;;;;;;;3.03;1.73;;;;;;;25.11;42.98;101095.81;10238964;28;20130;-67
2023/06/23 20:17:25;;;;;;;2.72;2.00;;;;;;;24.99;43.41;101097.84;10239484;28;20047;-70
2023/06/23 20:22:30;;;;;;;4.68;2.65;;;;;;;24.68;44.23;101106.47;10236497;28;20145;-70
2023/06/23 20:27:31;;;;;;;5.88;2.17;;;;;;;24.37;45.36;101109.78;10238892;28;20055;-70
2023/06/23 20:32:33;;;;;;;5.40;1.73;;;;;;;24.31;45.52;101111.66;10237772;28;20081;-70
2023/06/23 20:37:35;;;;;;;3.92;1.80;;;;;;;24.16;46.12;101117.69;10238179;28;20042;-71
2023/06/23 20:42:37;;;;;;;5.93;2.03;;;;;;;24.00;46.33;101110.28;10238239;28;20051;-68
2023/06/23 20:47:38;;;;;;;3.05;1.80;;;;;;;23.89;47.05;101118.28;10232842;28;20051;-71
2023/06/23 20:52:40;;;;;;;4.78;2.53;;;;;;;23.76;47.12;101122.16;10237716;28;20060;-66
2023/06/23 20:57:41;;;;;;;3.75;2.35;;;;;;;23.53;47.86;101120.31;10236346;28;20047;-59
2023/06/23 21:02:43;;;;;;;4.70;2.88;;;;;;;23.30;48.56;101129.47;10235144;28;20039;-60
2023/06/23 21:07:45;;;;;;;9.93;5.55;;;;;;;23.11;49.09;101117.81;10236553;28;20483;-60
2023/06/23 21:12:46;;;;;;;7.47;5.03;;;;;;;23.00;49.52;101115.03;10236502;28;20059;-60
2023/06/23 21:17:48;;;;;;;6.88;4.85;;;;;;;22.85;49.90;101112.78;10240341;28;20138;-60
2023/06/23 21:22:49;;;;;;;9.25;4.88;;;;;;;22.70;50.26;101113.25;10243045;28;20047;-60
2023/06/23 21:27:51;;;;;;;12.43;5.57;;;;;;;22.65;50.61;101110.38;10244299;28;20047;-60
2023/06/23 21:32:52;;;;;;;11.15;6.32;;;;;;;22.54;50.86;101117.53;10243208;28;20510;-61
2023/06/23 21:37:54;;;;;;;11.05;6.88;;;;;;;22.43;51.31;101108.22;10244360;28;20047;-59
2023/06/23 21:42:56;;;;;;;13.15;7.72;;;;;;;22.28;51.81;101114.16;10243806;28;20063;-60
2023/06/23 21:47:57;;;;;;;12.32;8.80;;;;;;;22.17;52.12;101110.28;10241237;28;20528;-60
2023/06/23 21:53:00;;;;;;;12.45;7.90;;;;;;;21.98;52.78;101114.19;10243078;28;20140;-61
2023/06/23 21:58:03;;;;;;;8.88;5.28;;;;;;;21.88;52.99;101119.38;10241588;28;20057;-59
2023/06/23 22:03:04;;;;;;;9.70;5.40;;;;;;;21.75;53.78;101128.59;10242774;28;20470;-61
2023/06/23 22:08:06;;;;;;;7.55;5.30;;;;;;;21.65;53.63;101125.59;10241495;28;20063;-60
2023/06/23 22:13:07;;;;;;;7.95;4.80;;;;;;;21.34;54.51;101128.22;10242918;28;20050;-60
2023/06/23 22:18:09;;;;;;;6.50;3.67;;;;;;;21.28;54.68;101128.31;10241077;28;20074;-61
2023/06/23 22:23:20;;;;;;;9.07;4.95;;;;;;;21.13;54.95;101129.53;10240293;28;20503;-60
2023/06/23 22:28:22;;;;;;;13.35;7.43;;;;;;;20.96;55.26;101132.00;10238773;28;20483;-60
2023/06/23 22:33:23;;;;;;;9.60;6.57;;;;;;;20.94;55.28;101144.25;10240155;28;20062;-61
2023/06/23 22:38:25;;;;;;;7.25;6.00;;;;;;;20.89;55.56;101147.66;10240887;28;20058;-59
2023/06/23 22:43:26;;;;;;;8.07;5.75;;;;;;;20.82;55.37;101149.59;10241280;28;20055;-61
2023/06/23 22:48:28;;;;;;;11.50;7.90;;;;;;;20.69;56.08;101147.00;10242117;28;20039;-60
2023/06/23 22:53:29;;;;;;;11.93;7.63;;;;;;;20.58;55.76;101145.78;10241558;28;20051;-59
2023/06/23 22:58:31;;;;;;;6.00;4.50;;;;;;;20.47;56.08;101141.03;10239844;28;20086;-60
2023/06/23 23:03:32;;;;;;;7.45;3.15;;;;;;;20.31;56.64;101132.34;10241674;28;20057;-61
2023/06/23 23:08:34;;;;;;;3.95;3.13;;;;;;;20.21;56.86;101135.56;10239929;28;20047;-60
2023/06/23 23:13:35;;;;;;;5.65;3.28;;;;;;;20.11;57.39;101132.47;10240719;28;20047;-60